sensor_id;sensor_type;location;lat;lon;timestamp;temperature;humidity
10149;DHT22;5115;50.920;6.376;2023-09-12T00:02:17;23.10;99.90
10149;DHT22;5115;50.920;6.376;2023-09-12T00:04:43;23.10;99.90
10149;DHT22;5115;50.920;6.376;2023-09-12T00:07:09;23.10;99.90
10149;DHT22;5115;50.920;6.376;2023-09-12T00:09:34;23.10;99.90
10149;DHT22;5115;50.920;6.376;2023-09-12T00:12:00;23.10;99.90
10149;DHT22;5115;50.920;6.376;2023-09-12T00:14:26;23.10;99.90
10149;DHT22;5115;50.920;6.376;2023-09-12T00:16:51;23.00;99.90
10149;DHT22;5115;50.920;6.376;2023-09-12T00:19:21;23.00;99.90
10149;DHT22;5115;50.920;6.376;2023-09-12T00:21:47;22.90;99.90
10149;DHT22;5115;50.920;6.376;2023-09-12T00:24:14;22.90;99.90
10149;DHT22;5115;50.920;6.376;2023-09-12T00:26:40;22.90;99.90
10149;DHT22;5115;50.920;6.376;2023-09-12T00:29:05;22.90;99.90
10149;DHT22;5115;50.920;6.376;2023-09-12T00:31:31;22.90;99.90
10149;DHT22;5115;50.920;6.376;2023-09-12T00:33:57;23.00;99.90
10149;DHT22;5115;50.920;6.376;2023-09-12T00:36:23;23.00;99.90
10149;DHT22;5115;50.920;6.376;2023-09-12T00:38:48;23.00;99.90
10149;DHT22;5115;50.920;6.376;2023-09-12T00:41:15;23.00;99.90
10149;DHT22;5115;50.920;6.376;2023-09-12T00:43:41;22.90;99.90
10149;DHT22;5115;50.920;6.376;2023-09-12T00:46:10;22.80;99.90
10149;DHT22;5115;50.920;6.376;2023-09-12T00:48:37;22.70;99.90
10149;DHT22;5115;50.920;6.376;2023-09-12T00:51:03;22.70;99.90
10149;DHT22;5115;50.920;6.376;2023-09-12T00:53:30;22.70;99.90
10149;DHT22;5115;50.920;6.376;2023-09-12T00:55:57;22.60;99.90
10149;DHT22;5115;50.920;6.376;2023-09-12T00:58:25;22.60;99.90
10149;DHT22;5115;50.920;6.376;2023-09-12T01:00:51;22.60;99.90
10149;DHT22;5115;50.920;6.376;2023-09-12T01:03:16;22.60;99.90
10149;DHT22;5115;50.920;6.376;2023-09-12T01:05:43;22.50;99.90
10149;DHT22;5115;50.920;6.376;2023-09-12T01:08:10;23.00;99.90
10149;DHT22;5115;50.920;6.376;2023-09-12T01:10:36;22.60;99.90
10149;DHT22;5115;50.920;6.376;2023-09-12T01:13:03;22.60;99.90
10149;DHT22;5115;50.920;6.376;2023-09-12T01:15:29;22.70;99.90
10149;DHT22;5115;50.920;6.376;2023-09-12T01:17:55;22.70;99.90
10149;DHT22;5115;50.920;6.376;2023-09-12T01:20:28;22.60;99.90
10149;DHT22;5115;50.920;6.376;2023-09-12T01:23:33;22.50;99.90
10149;DHT22;5115;50.920;6.376;2023-09-12T01:28:38;22.00;99.90
10149;DHT22;5115;50.920;6.376;2023-09-12T01:31:08;22.10;99.90
10149;DHT22;5115;50.920;6.376;2023-09-12T01:33:37;22.20;99.90
10149;DHT22;5115;50.920;6.376;2023-09-12T01:36:03;22.20;99.90
10149;DHT22;5115;50.920;6.376;2023-09-12T01:38:29;22.20;99.90
10149;DHT22;5115;50.920;6.376;2023-09-12T01:40:55;22.30;99.90
10149;DHT22;5115;50.920;6.376;2023-09-12T01:43:23;22.30;99.90
10149;DHT22;5115;50.920;6.376;2023-09-12T01:45:52;20.80;99.90
10149;DHT22;5115;50.920;6.376;2023-09-12T01:48:25;22.20;99.90
10149;DHT22;5115;50.920;6.376;2023-09-12T01:50:57;22.20;99.90
10149;DHT22;5115;50.920;6.376;2023-09-12T01:53:23;22.20;99.90
10149;DHT22;5115;50.920;6.376;2023-09-12T01:55:49;22.20;99.90
10149;DHT22;5115;50.920;6.376;2023-09-12T01:58:15;21.40;99.90
10149;DHT22;5115;50.920;6.376;2023-09-12T02:00:41;22.30;99.90
10149;DHT22;5115;50.920;6.376;2023-09-12T02:03:08;21.40;99.90
10149;DHT22;5115;50.920;6.376;2023-09-12T02:05:34;22.20;99.90
10149;DHT22;5115;50.920;6.376;2023-09-12T02:08:00;22.00;99.90
10149;DHT22;5115;50.920;6.376;2023-09-12T02:10:27;22.00;99.90
10149;DHT22;5115;50.920;6.376;2023-09-12T02:12:53;22.00;99.90
10149;DHT22;5115;50.920;6.376;2023-09-12T02:15:19;22.00;99.90
10149;DHT22;5115;50.920;6.376;2023-09-12T02:17:45;22.10;99.90
10149;DHT22;5115;50.920;6.376;2023-09-12T02:20:12;22.10;99.90
10149;DHT22;5115;50.920;6.376;2023-09-12T02:22:37;22.10;99.90
10149;DHT22;5115;50.920;6.376;2023-09-12T02:25:05;22.10;99.90
10149;DHT22;5115;50.920;6.376;2023-09-12T02:27:31;22.10;99.90
10149;DHT22;5115;50.920;6.376;2023-09-12T02:29:57;22.10;99.90
10149;DHT22;5115;50.920;6.376;2023-09-12T02:32:23;22.10;99.90
10149;DHT22;5115;50.920;6.376;2023-09-12T02:34:51;22.10;99.90
10149;DHT22;5115;50.920;6.376;2023-09-12T02:37:19;22.10;99.90
10149;DHT22;5115;50.920;6.376;2023-09-12T02:39:44;23.40;99.90
10149;DHT22;5115;50.920;6.376;2023-09-12T02:42:10;22.10;99.90
10149;DHT22;5115;50.920;6.376;2023-09-12T02:44:37;22.20;99.90
10149;DHT22;5115;50.920;6.376;2023-09-12T02:47:04;22.20;99.90
10149;DHT22;5115;50.920;6.376;2023-09-12T02:49:29;22.20;99.90
10149;DHT22;5115;50.920;6.376;2023-09-12T02:51:55;22.20;99.90
10149;DHT22;5115;50.920;6.376;2023-09-12T02:54:21;22.20;99.90
10149;DHT22;5115;50.920;6.376;2023-09-12T02:56:46;22.30;99.90
10149;DHT22;5115;50.920;6.376;2023-09-12T02:59:17;22.30;99.90
10149;DHT22;5115;50.920;6.376;2023-09-12T03:01:44;22.20;99.90
10149;DHT22;5115;50.920;6.376;2023-09-12T03:04:11;22.10;99.90
10149;DHT22;5115;50.920;6.376;2023-09-12T03:06:36;22.10;99.90
10149;DHT22;5115;50.920;6.376;2023-09-12T03:09:04;22.00;99.90
10149;DHT22;5115;50.920;6.376;2023-09-12T03:11:31;22.00;99.90
10149;DHT22;5115;50.920;6.376;2023-09-12T03:13:58;22.00;99.90
10149;DHT22;5115;50.920;6.376;2023-09-12T03:16:24;21.70;99.90
10149;DHT22;5115;50.920;6.376;2023-09-12T03:18:50;21.60;99.90
10149;DHT22;5115;50.920;6.376;2023-09-12T03:21:22;21.50;99.90
10149;DHT22;5115;50.920;6.376;2023-09-12T03:23:48;21.30;99.90
10149;DHT22;5115;50.920;6.376;2023-09-12T03:26:15;21.00;99.90
10149;DHT22;5115;50.920;6.376;2023-09-12T03:28:41;20.90;99.90
10149;DHT22;5115;50.920;6.376;2023-09-12T03:31:10;20.50;99.90
10149;DHT22;5115;50.920;6.376;2023-09-12T03:33:41;20.50;99.90
10149;DHT22;5115;50.920;6.376;2023-09-12T03:36:07;20.50;99.90
10149;DHT22;5115;50.920;6.376;2023-09-12T03:38:33;20.50;99.90
10149;DHT22;5115;50.920;6.376;2023-09-12T03:41:00;20.40;99.90
10149;DHT22;5115;50.920;6.376;2023-09-12T03:43:25;20.40;99.90
10149;DHT22;5115;50.920;6.376;2023-09-12T03:45:51;20.40;99.90
10149;DHT22;5115;50.920;6.376;2023-09-12T03:48:17;20.60;99.90
10149;DHT22;5115;50.920;6.376;2023-09-12T03:50:42;20.60;99.90
10149;DHT22;5115;50.920;6.376;2023-09-12T03:53:08;20.80;99.90
10149;DHT22;5115;50.920;6.376;2023-09-12T03:55:34;20.90;99.90
10149;DHT22;5115;50.920;6.376;2023-09-12T03:58:01;20.90;99.90
10149;DHT22;5115;50.920;6.376;2023-09-12T04:00:27;20.90;99.90
10149;DHT22;5115;50.920;6.376;2023-09-12T04:02:53;20.90;99.90
10149;DHT22;5115;50.920;6.376;2023-09-12T04:05:18;21.00;99.90
10149;DHT22;5115;50.920;6.376;2023-09-12T04:07:44;21.40;99.90
10149;DHT22;5115;50.920;6.376;2023-09-12T04:10:09;21.10;99.90
10149;DHT22;5115;50.920;6.376;2023-09-12T04:12:35;21.60;99.90
10149;DHT22;5115;50.920;6.376;2023-09-12T04:15:02;21.20;99.90
10149;DHT22;5115;50.920;6.376;2023-09-12T04:17:30;21.30;99.90
10149;DHT22;5115;50.920;6.376;2023-09-12T04:19:57;21.40;99.90
10149;DHT22;5115;50.920;6.376;2023-09-12T04:22:23;21.50;99.90
10149;DHT22;5115;50.920;6.376;2023-09-12T04:24:48;21.50;99.90
10149;DHT22;5115;50.920;6.376;2023-09-12T04:27:16;21.40;99.90
10149;DHT22;5115;50.920;6.376;2023-09-12T04:29:41;21.50;99.90
10149;DHT22;5115;50.920;6.376;2023-09-12T04:32:07;21.50;99.90
10149;DHT22;5115;50.920;6.376;2023-09-12T04:34:32;21.50;99.90
10149;DHT22;5115;50.920;6.376;2023-09-12T04:36:58;21.40;99.90
10149;DHT22;5115;50.920;6.376;2023-09-12T04:39:24;21.40;99.90
10149;DHT22;5115;50.920;6.376;2023-09-12T04:41:49;21.40;99.90
10149;DHT22;5115;50.920;6.376;2023-09-12T04:44:16;21.40;99.90
10149;DHT22;5115;50.920;6.376;2023-09-12T04:46:46;22.60;99.90
10149;DHT22;5115;50.920;6.376;2023-09-12T04:49:11;21.40;99.90
10149;DHT22;5115;50.920;6.376;2023-09-12T04:51:37;21.40;99.90
10149;DHT22;5115;50.920;6.376;2023-09-12T04:54:04;21.40;99.90
10149;DHT22;5115;50.920;6.376;2023-09-12T04:56:29;21.40;99.90
10149;DHT22;5115;50.920;6.376;2023-09-12T04:58:57;21.40;99.90
10149;DHT22;5115;50.920;6.376;2023-09-12T05:01:22;21.40;99.90
10149;DHT22;5115;50.920;6.376;2023-09-12T05:03:53;21.40;99.90
10149;DHT22;5115;50.920;6.376;2023-09-12T05:06:19;21.50;99.90
10149;DHT22;5115;50.920;6.376;2023-09-12T05:08:47;21.50;99.90
10149;DHT22;5115;50.920;6.376;2023-09-12T05:11:13;21.50;99.90
10149;DHT22;5115;50.920;6.376;2023-09-12T05:13:38;21.60;99.90
10149;DHT22;5115;50.920;6.376;2023-09-12T05:16:04;21.50;99.90
10149;DHT22;5115;50.920;6.376;2023-09-12T05:18:29;21.30;99.90
10149;DHT22;5115;50.920;6.376;2023-09-12T05:20:55;21.30;99.90
10149;DHT22;5115;50.920;6.376;2023-09-12T05:23:22;21.30;99.90
10149;DHT22;5115;50.920;6.376;2023-09-12T05:25:48;21.40;99.90
10149;DHT22;5115;50.920;6.376;2023-09-12T05:28:13;21.50;99.90
10149;DHT22;5115;50.920;6.376;2023-09-12T05:30:43;21.50;99.90
10149;DHT22;5115;50.920;6.376;2023-09-12T05:33:08;21.40;99.90
10149;DHT22;5115;50.920;6.376;2023-09-12T05:35:34;21.40;99.90
10149;DHT22;5115;50.920;6.376;2023-09-12T05:37:59;21.30;99.90
10149;DHT22;5115;50.920;6.376;2023-09-12T05:40:25;21.30;99.90
10149;DHT22;5115;50.920;6.376;2023-09-12T05:42:50;21.20;99.90
10149;DHT22;5115;50.920;6.376;2023-09-12T05:45:16;21.30;99.90
10149;DHT22;5115;50.920;6.376;2023-09-12T05:47:41;21.40;99.90
10149;DHT22;5115;50.920;6.376;2023-09-12T05:50:07;21.40;99.90
10149;DHT22;5115;50.920;6.376;2023-09-12T05:52:33;21.40;99.90
10149;DHT22;5115;50.920;6.376;2023-09-12T05:55:05;21.50;99.90
10149;DHT22;5115;50.920;6.376;2023-09-12T05:57:31;21.50;99.90
10149;DHT22;5115;50.920;6.376;2023-09-12T06:00:00;21.60;99.90
10149;DHT22;5115;50.920;6.376;2023-09-12T06:02:27;21.70;99.90
10149;DHT22;5115;50.920;6.376;2023-09-12T06:04:52;21.70;99.90
10149;DHT22;5115;50.920;6.376;2023-09-12T06:07:18;21.80;99.90
10149;DHT22;5115;50.920;6.376;2023-09-12T06:09:44;21.80;99.90
10149;DHT22;5115;50.920;6.376;2023-09-12T06:12:10;21.80;99.90
10149;DHT22;5115;50.920;6.376;2023-09-12T06:14:36;21.60;99.90
10149;DHT22;5115;50.920;6.376;2023-09-12T06:17:03;21.60;99.90
10149;DHT22;5115;50.920;6.376;2023-09-12T06:19:28;21.40;99.90
10149;DHT22;5115;50.920;6.376;2023-09-12T06:21:54;21.50;99.90
10149;DHT22;5115;50.920;6.376;2023-09-12T06:24:21;21.60;99.90
10149;DHT22;5115;50.920;6.376;2023-09-12T06:26:47;21.60;99.90
10149;DHT22;5115;50.920;6.376;2023-09-12T06:29:13;21.70;99.90
10149;DHT22;5115;50.920;6.376;2023-09-12T06:31:39;21.80;99.90
10149;DHT22;5115;50.920;6.376;2023-09-12T06:34:07;21.90;99.90
10149;DHT22;5115;50.920;6.376;2023-09-12T06:36:32;21.70;99.90
10149;DHT22;5115;50.920;6.376;2023-09-12T06:38:59;21.80;99.90
10149;DHT22;5115;50.920;6.376;2023-09-12T06:41:26;21.80;99.90
10149;DHT22;5115;50.920;6.376;2023-09-12T06:43:52;22.00;99.90
10149;DHT22;5115;50.920;6.376;2023-09-12T06:46:18;22.10;99.90
10149;DHT22;5115;50.920;6.376;2023-09-12T06:48:47;22.30;99.90
10149;DHT22;5115;50.920;6.376;2023-09-12T06:51:14;22.60;99.90
10149;DHT22;5115;50.920;6.376;2023-09-12T06:53:40;22.90;99.90
10149;DHT22;5115;50.920;6.376;2023-09-12T06:56:07;23.10;99.90
10149;DHT22;5115;50.920;6.376;2023-09-12T06:58:33;23.40;99.90
10149;DHT22;5115;50.920;6.376;2023-09-12T07:01:07;23.70;99.90
10149;DHT22;5115;50.920;6.376;2023-09-12T07:03:34;24.10;99.90
10149;DHT22;5115;50.920;6.376;2023-09-12T07:06:01;24.40;99.90
10149;DHT22;5115;50.920;6.376;2023-09-12T07:08:28;24.70;99.90
10149;DHT22;5115;50.920;6.376;2023-09-12T07:10:54;25.00;99.90
10149;DHT22;5115;50.920;6.376;2023-09-12T07:13:21;25.40;99.90
10149;DHT22;5115;50.920;6.376;2023-09-12T07:15:47;25.80;99.90
10149;DHT22;5115;50.920;6.376;2023-09-12T07:18:13;26.40;99.90
10149;DHT22;5115;50.920;6.376;2023-09-12T07:20:40;26.80;99.90
10149;DHT22;5115;50.920;6.376;2023-09-12T07:23:06;27.30;99.90
10149;DHT22;5115;50.920;6.376;2023-09-12T07:25:40;27.60;99.90
10149;DHT22;5115;50.920;6.376;2023-09-12T07:28:07;28.10;99.90
10149;DHT22;5115;50.920;6.376;2023-09-12T07:30:33;28.60;99.90
10149;DHT22;5115;50.920;6.376;2023-09-12T07:32:58;29.10;99.90
10149;DHT22;5115;50.920;6.376;2023-09-12T07:35:24;29.60;99.90
10149;DHT22;5115;50.920;6.376;2023-09-12T07:37:50;30.30;99.90
10149;DHT22;5115;50.920;6.376;2023-09-12T07:40:16;31.30;99.90
10149;DHT22;5115;50.920;6.376;2023-09-12T07:42:42;32.10;99.90
10149;DHT22;5115;50.920;6.376;2023-09-12T07:45:08;32.70;99.90
10149;DHT22;5115;50.920;6.376;2023-09-12T07:47:34;33.10;99.90
10149;DHT22;5115;50.920;6.376;2023-09-12T07:49:59;33.40;99.90
10149;DHT22;5115;50.920;6.376;2023-09-12T07:52:26;33.80;99.90
10149;DHT22;5115;50.920;6.376;2023-09-12T07:54:52;34.20;99.90
10149;DHT22;5115;50.920;6.376;2023-09-12T07:57:22;34.20;99.90
10149;DHT22;5115;50.920;6.376;2023-09-12T07:59:48;34.50;99.90
10149;DHT22;5115;50.920;6.376;2023-09-12T08:02:14;34.80;99.90
10149;DHT22;5115;50.920;6.376;2023-09-12T08:04:41;35.00;99.90
10149;DHT22;5115;50.920;6.376;2023-09-12T08:07:06;35.10;99.90
10149;DHT22;5115;50.920;6.376;2023-09-12T08:09:53;35.50;99.90
10149;DHT22;5115;50.920;6.376;2023-09-12T08:12:21;35.40;99.90
10149;DHT22;5115;50.920;6.376;2023-09-12T08:14:46;35.60;99.90
10149;DHT22;5115;50.920;6.376;2023-09-12T08:17:13;35.80;99.90
10149;DHT22;5115;50.920;6.376;2023-09-12T08:19:39;35.80;99.90
10149;DHT22;5115;50.920;6.376;2023-09-12T08:22:06;35.60;99.90
10149;DHT22;5115;50.920;6.376;2023-09-12T08:24:33;34.70;99.90
10149;DHT22;5115;50.920;6.376;2023-09-12T08:26:59;34.00;99.90
10149;DHT22;5115;50.920;6.376;2023-09-12T08:29:27;34.00;99.90
10149;DHT22;5115;50.920;6.376;2023-09-12T08:31:53;34.50;99.90
10149;DHT22;5115;50.920;6.376;2023-09-12T08:34:20;33.90;99.90
10149;DHT22;5115;50.920;6.376;2023-09-12T08:36:45;32.90;99.90
10149;DHT22;5115;50.920;6.376;2023-09-12T08:39:14;33.10;99.90
10149;DHT22;5115;50.920;6.376;2023-09-12T08:41:43;33.10;99.90
10149;DHT22;5115;50.920;6.376;2023-09-12T08:44:09;33.20;99.90
10149;DHT22;5115;50.920;6.376;2023-09-12T08:46:34;33.00;99.90
10149;DHT22;5115;50.920;6.376;2023-09-12T08:49:00;32.30;99.90
10149;DHT22;5115;50.920;6.376;2023-09-12T08:51:26;31.90;99.90
10149;DHT22;5115;50.920;6.376;2023-09-12T08:53:52;32.10;99.90
10149;DHT22;5115;50.920;6.376;2023-09-12T08:56:19;32.70;99.90
10149;DHT22;5115;50.920;6.376;2023-09-12T08:58:45;32.70;99.90
10149;DHT22;5115;50.920;6.376;2023-09-12T09:01:13;32.30;99.90
10149;DHT22;5115;50.920;6.376;2023-09-12T09:03:41;31.90;99.90
10149;DHT22;5115;50.920;6.376;2023-09-12T09:06:08;32.00;99.90
10149;DHT22;5115;50.920;6.376;2023-09-12T09:08:36;32.50;99.90
10149;DHT22;5115;50.920;6.376;2023-09-12T09:11:02;32.60;99.90
10149;DHT22;5115;50.920;6.376;2023-09-12T09:13:29;32.00;99.90
10149;DHT22;5115;50.920;6.376;2023-09-12T09:16:15;32.10;99.90
10149;DHT22;5115;50.920;6.376;2023-09-12T09:18:57;31.80;99.90
10149;DHT22;5115;50.920;6.376;2023-09-12T09:21:25;31.70;99.90
10149;DHT22;5115;50.920;6.376;2023-09-12T09:23:54;31.80;99.90
10149;DHT22;5115;50.920;6.376;2023-09-12T09:26:20;32.30;99.90
10149;DHT22;5115;50.920;6.376;2023-09-12T09:29:08;32.80;99.90
10149;DHT22;5115;50.920;6.376;2023-09-12T09:31:32;32.70;99.90
10149;DHT22;5115;50.920;6.376;2023-09-12T09:33:59;32.80;99.90
10149;DHT22;5115;50.920;6.376;2023-09-12T09:36:25;32.70;99.90
10149;DHT22;5115;50.920;6.376;2023-09-12T09:38:51;32.80;99.90
10149;DHT22;5115;50.920;6.376;2023-09-12T09:41:20;33.30;99.90
10149;DHT22;5115;50.920;6.376;2023-09-12T09:43:49;33.60;99.90
10149;DHT22;5115;50.920;6.376;2023-09-12T09:46:16;33.70;99.90
10149;DHT22;5115;50.920;6.376;2023-09-12T09:48:49;34.00;99.90
10149;DHT22;5115;50.920;6.376;2023-09-12T09:51:15;34.00;99.90
10149;DHT22;5115;50.920;6.376;2023-09-12T09:53:41;34.10;99.90
10149;DHT22;5115;50.920;6.376;2023-09-12T09:56:10;34.00;99.90
10149;DHT22;5115;50.920;6.376;2023-09-12T10:01:11;33.10;99.90
10149;DHT22;5115;50.920;6.376;2023-09-12T10:03:38;33.10;99.90
10149;DHT22;5115;50.920;6.376;2023-09-12T10:06:04;32.90;99.90
10149;DHT22;5115;50.920;6.376;2023-09-12T10:08:32;33.10;99.90
10149;DHT22;5115;50.920;6.376;2023-09-12T10:10:57;33.00;99.90
10149;DHT22;5115;50.920;6.376;2023-09-12T10:13:26;32.70;99.90
10149;DHT22;5115;50.920;6.376;2023-09-12T10:15:56;32.60;99.90
10149;DHT22;5115;50.920;6.376;2023-09-12T10:18:25;32.60;99.90
10149;DHT22;5115;50.920;6.376;2023-09-12T10:20:58;32.70;99.90
10149;DHT22;5115;50.920;6.376;2023-09-12T10:23:38;33.10;99.90
10149;DHT22;5115;50.920;6.376;2023-09-12T10:26:12;32.80;99.90
10149;DHT22;5115;50.920;6.376;2023-09-12T10:28:42;32.50;99.90
10149;DHT22;5115;50.920;6.376;2023-09-12T10:31:11;32.10;99.90
10149;DHT22;5115;50.920;6.376;2023-09-12T10:33:37;32.10;99.90
10149;DHT22;5115;50.920;6.376;2023-09-12T10:36:05;31.50;99.90
10149;DHT22;5115;50.920;6.376;2023-09-12T10:38:33;31.60;99.90
10149;DHT22;5115;50.920;6.376;2023-09-12T10:41:02;31.20;99.90
10149;DHT22;5115;50.920;6.376;2023-09-12T10:43:29;30.80;99.90
10149;DHT22;5115;50.920;6.376;2023-09-12T10:46:01;31.50;99.90
10149;DHT22;5115;50.920;6.376;2023-09-12T10:48:28;31.70;99.90
10149;DHT22;5115;50.920;6.376;2023-09-12T10:50:57;32.00;99.90
10149;DHT22;5115;50.920;6.376;2023-09-12T10:53:26;32.00;99.90
10149;DHT22;5115;50.920;6.376;2023-09-12T10:55:59;32.20;99.90
10149;DHT22;5115;50.920;6.376;2023-09-12T10:58:25;32.30;99.90
10149;DHT22;5115;50.920;6.376;2023-09-12T11:01:26;32.30;99.90
10149;DHT22;5115;50.920;6.376;2023-09-12T11:03:52;32.10;99.90
10149;DHT22;5115;50.920;6.376;2023-09-12T11:06:30;31.80;99.90
10149;DHT22;5115;50.920;6.376;2023-09-12T11:09:32;31.80;99.90
10149;DHT22;5115;50.920;6.376;2023-09-12T11:12:04;32.00;99.90
10149;DHT22;5115;50.920;6.376;2023-09-12T11:14:34;31.80;99.90
10149;DHT22;5115;50.920;6.376;2023-09-12T11:19:46;31.40;99.90
10149;DHT22;5115;50.920;6.376;2023-09-12T11:22:30;31.60;99.90
10149;DHT22;5115;50.920;6.376;2023-09-12T11:24:57;31.60;99.90
10149;DHT22;5115;50.920;6.376;2023-09-12T11:27:32;31.60;99.90
10149;DHT22;5115;50.920;6.376;2023-09-12T11:30:05;31.40;99.90
10149;DHT22;5115;50.920;6.376;2023-09-12T11:32:32;31.50;99.90
10149;DHT22;5115;50.920;6.376;2023-09-12T11:35:05;31.60;99.90
10149;DHT22;5115;50.920;6.376;2023-09-12T11:37:31;31.40;99.90
10149;DHT22;5115;50.920;6.376;2023-09-12T11:39:58;30.90;99.90
10149;DHT22;5115;50.920;6.376;2023-09-12T11:42:24;30.70;99.90
10149;DHT22;5115;50.920;6.376;2023-09-12T11:44:53;31.00;99.90
10149;DHT22;5115;50.920;6.376;2023-09-12T11:47:19;30.50;99.90
10149;DHT22;5115;50.920;6.376;2023-09-12T11:49:46;30.60;99.90
10149;DHT22;5115;50.920;6.376;2023-09-12T11:52:15;30.70;99.90
10149;DHT22;5115;50.920;6.376;2023-09-12T11:54:45;30.90;99.90
10149;DHT22;5115;50.920;6.376;2023-09-12T11:57:12;31.00;99.90
10149;DHT22;5115;50.920;6.376;2023-09-12T11:59:40;30.80;99.90
10149;DHT22;5115;50.920;6.376;2023-09-12T12:02:09;30.90;99.90
10149;DHT22;5115;50.920;6.376;2023-09-12T12:04:36;31.00;99.90
10149;DHT22;5115;50.920;6.376;2023-09-12T12:07:02;31.10;99.90
10149;DHT22;5115;50.920;6.376;2023-09-12T12:09:31;30.90;99.90
10149;DHT22;5115;50.920;6.376;2023-09-12T12:12:03;30.30;99.90
10149;DHT22;5115;50.920;6.376;2023-09-12T12:14:28;30.10;99.90
10149;DHT22;5115;50.920;6.376;2023-09-12T12:17:05;30.20;99.90
10149;DHT22;5115;50.920;6.376;2023-09-12T12:19:31;30.20;99.90
10149;DHT22;5115;50.920;6.376;2023-09-12T12:21:56;30.40;99.90
10149;DHT22;5115;50.920;6.376;2023-09-12T12:24:22;30.50;99.90
10149;DHT22;5115;50.920;6.376;2023-09-12T12:26:47;30.40;99.90
10149;DHT22;5115;50.920;6.376;2023-09-12T12:29:13;30.30;99.90
10149;DHT22;5115;50.920;6.376;2023-09-12T12:31:39;30.30;99.90
10149;DHT22;5115;50.920;6.376;2023-09-12T12:34:05;30.30;99.90
10149;DHT22;5115;50.920;6.376;2023-09-12T12:36:31;29.80;99.90
10149;DHT22;5115;50.920;6.376;2023-09-12T12:38:57;29.40;99.90
10149;DHT22;5115;50.920;6.376;2023-09-12T12:41:27;29.30;99.90
10149;DHT22;5115;50.920;6.376;2023-09-12T12:43:57;29.20;99.90
10149;DHT22;5115;50.920;6.376;2023-09-12T12:46:25;29.20;99.90
10149;DHT22;5115;50.920;6.376;2023-09-12T12:48:51;29.10;99.90
10149;DHT22;5115;50.920;6.376;2023-09-12T12:51:17;29.00;99.90
10149;DHT22;5115;50.920;6.376;2023-09-12T12:53:49;28.70;99.90
10149;DHT22;5115;50.920;6.376;2023-09-12T12:56:18;28.60;99.90
10149;DHT22;5115;50.920;6.376;2023-09-12T12:58:48;28.60;99.90
10149;DHT22;5115;50.920;6.376;2023-09-12T13:01:14;28.60;99.90
10149;DHT22;5115;50.920;6.376;2023-09-12T13:03:40;28.50;99.90
10149;DHT22;5115;50.920;6.376;2023-09-12T13:06:07;28.40;99.90
10149;DHT22;5115;50.920;6.376;2023-09-12T13:08:41;28.30;99.90
10149;DHT22;5115;50.920;6.376;2023-09-12T13:11:10;28.40;99.90
10149;DHT22;5115;50.920;6.376;2023-09-12T13:13:37;28.50;99.90
10149;DHT22;5115;50.920;6.376;2023-09-12T13:16:07;28.70;99.90
10149;DHT22;5115;50.920;6.376;2023-09-12T13:18:36;28.60;99.90
10149;DHT22;5115;50.920;6.376;2023-09-12T13:21:02;28.40;99.90
10149;DHT22;5115;50.920;6.376;2023-09-12T13:23:28;28.40;99.90
10149;DHT22;5115;50.920;6.376;2023-09-12T13:25:54;28.40;99.90
10149;DHT22;5115;50.920;6.376;2023-09-12T13:28:19;28.30;99.90
10149;DHT22;5115;50.920;6.376;2023-09-12T13:30:45;28.20;99.90
10149;DHT22;5115;50.920;6.376;2023-09-12T13:33:12;28.30;99.90
10149;DHT22;5115;50.920;6.376;2023-09-12T13:35:41;28.30;99.90
10149;DHT22;5115;50.920;6.376;2023-09-12T13:38:06;28.30;99.90
10149;DHT22;5115;50.920;6.376;2023-09-12T13:40:41;28.30;99.90
10149;DHT22;5115;50.920;6.376;2023-09-12T13:43:07;28.40;99.90
10149;DHT22;5115;50.920;6.376;2023-09-12T13:45:34;28.40;99.90
10149;DHT22;5115;50.920;6.376;2023-09-12T13:48:00;28.40;99.90
10149;DHT22;5115;50.920;6.376;2023-09-12T13:50:26;28.30;99.90
10149;DHT22;5115;50.920;6.376;2023-09-12T13:52:55;28.30;99.90
10149;DHT22;5115;50.920;6.376;2023-09-12T13:55:22;28.10;99.90
10149;DHT22;5115;50.920;6.376;2023-09-12T13:57:52;27.80;99.90
10149;DHT22;5115;50.920;6.376;2023-09-12T14:00:18;27.70;99.90
10149;DHT22;5115;50.920;6.376;2023-09-12T14:02:43;27.80;99.90
10149;DHT22;5115;50.920;6.376;2023-09-12T14:05:13;27.80;99.90
10149;DHT22;5115;50.920;6.376;2023-09-12T14:07:39;27.90;99.90
10149;DHT22;5115;50.920;6.376;2023-09-12T14:10:08;27.90;99.90
10149;DHT22;5115;50.920;6.376;2023-09-12T14:12:34;28.20;99.90
10149;DHT22;5115;50.920;6.376;2023-09-12T14:15:00;28.30;99.90
10149;DHT22;5115;50.920;6.376;2023-09-12T14:17:26;28.40;99.90
10149;DHT22;5115;50.920;6.376;2023-09-12T14:19:54;28.60;99.90
10149;DHT22;5115;50.920;6.376;2023-09-12T14:22:21;28.60;99.90
10149;DHT22;5115;50.920;6.376;2023-09-12T14:24:47;28.40;99.90
10149;DHT22;5115;50.920;6.376;2023-09-12T14:27:13;28.30;99.90
10149;DHT22;5115;50.920;6.376;2023-09-12T14:29:38;28.00;99.90
10149;DHT22;5115;50.920;6.376;2023-09-12T14:32:04;27.90;99.90
10149;DHT22;5115;50.920;6.376;2023-09-12T14:34:30;27.70;99.90
10149;DHT22;5115;50.920;6.376;2023-09-12T14:36:58;27.70;99.90
10149;DHT22;5115;50.920;6.376;2023-09-12T14:39:24;27.60;99.90
10149;DHT22;5115;50.920;6.376;2023-09-12T14:41:50;27.70;99.90
10149;DHT22;5115;50.920;6.376;2023-09-12T14:44:23;27.70;99.90
10149;DHT22;5115;50.920;6.376;2023-09-12T14:46:49;27.70;99.90
10149;DHT22;5115;50.920;6.376;2023-09-12T14:49:15;27.80;99.90
10149;DHT22;5115;50.920;6.376;2023-09-12T14:51:42;27.90;99.90
10149;DHT22;5115;50.920;6.376;2023-09-12T14:54:08;28.00;99.90
10149;DHT22;5115;50.920;6.376;2023-09-12T14:56:35;27.80;99.90
10149;DHT22;5115;50.920;6.376;2023-09-12T14:59:01;27.80;99.90
10149;DHT22;5115;50.920;6.376;2023-09-12T15:01:28;27.70;99.90
10149;DHT22;5115;50.920;6.376;2023-09-12T15:03:53;27.70;99.90
10149;DHT22;5115;50.920;6.376;2023-09-12T15:06:19;27.80;99.90
10149;DHT22;5115;50.920;6.376;2023-09-12T15:08:45;27.90;99.90
10149;DHT22;5115;50.920;6.376;2023-09-12T15:11:11;28.00;99.90
10149;DHT22;5115;50.920;6.376;2023-09-12T15:13:37;27.90;99.90
10149;DHT22;5115;50.920;6.376;2023-09-12T15:16:03;27.90;99.90
10149;DHT22;5115;50.920;6.376;2023-09-12T15:18:30;28.00;99.90
10149;DHT22;5115;50.920;6.376;2023-09-12T15:20:55;27.80;99.90
10149;DHT22;5115;50.920;6.376;2023-09-12T15:23:21;27.70;99.90
10149;DHT22;5115;50.920;6.376;2023-09-12T15:25:48;27.50;99.90
10149;DHT22;5115;50.920;6.376;2023-09-12T15:28:14;27.40;99.90
10149;DHT22;5115;50.920;6.376;2023-09-12T15:30:39;27.50;99.90
10149;DHT22;5115;50.920;6.376;2023-09-12T15:33:05;27.50;99.90
10149;DHT22;5115;50.920;6.376;2023-09-12T15:35:31;27.50;99.90
10149;DHT22;5115;50.920;6.376;2023-09-12T15:37:56;27.60;99.90
10149;DHT22;5115;50.920;6.376;2023-09-12T15:40:22;27.40;99.90
10149;DHT22;5115;50.920;6.376;2023-09-12T15:42:47;27.30;99.90
10149;DHT22;5115;50.920;6.376;2023-09-12T15:45:13;27.20;99.90
10149;DHT22;5115;50.920;6.376;2023-09-12T15:47:41;27.10;99.90
10149;DHT22;5115;50.920;6.376;2023-09-12T15:50:07;27.10;99.90
10149;DHT22;5115;50.920;6.376;2023-09-12T15:52:32;27.20;99.90
10149;DHT22;5115;50.920;6.376;2023-09-12T15:55:04;27.20;99.90